This is the latest recevied weather packets stored in our database for station/object KA0WKG. If no packets are shown the sender has not sent any weather packets the latest 10 day(s).
| Time | Temp. | Humidity | Pressure | Rain* | Wind** | Luminosity | Snow |
|---|---|---|---|---|---|---|---|
| 1777619409 | 3.33° C | 73% | 1020.8 hPa | 0 mm | - | - | - |
| 1777619109 | 3.33° C | 73% | 1020.9 hPa | 0 mm | - | - | - |
| 1777618508 | 2.78° C | 75% | 1020.9 hPa | 0 mm | - | - | - |
| 1777617309 | 3.33° C | 74% | 1020.9 hPa | 0 mm | - | - | - |
| 1777617009 | 3.33° C | 74% | 1020.9 hPa | 0 mm | - | - | - |
| 1777614608 | 4.44° C | 69% | 1021.2 hPa | 0 mm | - | - | - |
| 1777614009 | 5° C | 68% | 1021.2 hPa | 0 mm | - | - | - |
| 1777613109 | 6.11° C | 65% | 1021 hPa | 0 mm | - | - | - |
| 1777611609 | 6.11° C | 62% | 1020.9 hPa | 0 mm | - | - | - |
| 1777608308 | 7.22° C | 67% | 1020.6 hPa | 0 mm | - | - | - |
| 1777603508 | 8.89° C | 64% | 1019.6 hPa | 0 mm | - | - | - |
| 1777602308 | 9.44° C | 63% | 1019.4 hPa | 0 mm | - | - | - |
| 1777600807 | 10° C | 51% | 1019 hPa | 0 mm | - | - | - |
| 1777598407 | 11.11° C | 54% | 1018.6 hPa | 0 mm | - | - | - |
| 1777598107 | 11.11° C | 54% | 1018.6 hPa | 0 mm | - | - | - |
| 1777596907 | 12.78° C | 47% | 1018.5 hPa | 0 mm | - | - | - |
| 1777596007 | 13.33° C | 40% | 1018.4 hPa | 0 mm | - | - | - |
| 1777595407 | 13.33° C | 40% | 1018.4 hPa | 0 mm | - | - | - |
| 1777593609 | 13.33° C | 37% | 1018.6 hPa | 0 mm | - | - | - |
| 1777591807 | 13.33° C | 38% | 1018.6 hPa | 0 mm | - | - | - |
| 1777591507 | 13.33° C | 38% | 1018.7 hPa | 0 mm | - | - | - |
| 1777590907 | 13.89° C | 38% | 1018.7 hPa | 0 mm | - | - | - |
| 1777589707 | 13.89° C | 39% | 1018.6 hPa | 0 mm | - | - | - |
| 1777588807 | 13.33° C | 38% | 1018.6 hPa | 0 mm | - | - | - |
| 1777586407 | 12.78° C | 40% | 1019.1 hPa | 0 mm | - | - | - |
* Rain latest hour (hover to see other rain measurements)
** Current wind speed in m/s (hover to see current wind gust speed)